Tropical Cyclones
[Index]
Main Index Home Page Stock Weather Photos Extreme Storms Discussion Storm News and Storm Chasing Reports Tropical Cyclones / Hurricanes / Typhoons Weather Data and Links Wild Fires / Bushfires Weather Observation Techniques Weather Picture Catalogue Tornado Pictures and Reports Stock Video Footage and DVDs for sale
Season 2002-2003 Tropical Cyclone 200307 Track Map
Season 2002-2003 Summaries: [BoM-AU] [JTWC-AU] [JTWC-SIO] [JTWC-SPAC] [JTWC-SH]
<<- Previous TC | JTWC 2002-2003 Season | Next TC ->>

click for intensity scale information  Lat/long Grid: Show Hide

 Date Labels: Show Hide

Joint Typhoon Warning Centre Cyclone Data

Name: 200307

25 Dec 2002 00:00 UTC to 03 Jan 2003 06:00 UTC

    date/time    lat    long     hPa   cat  kts
2002-12-25 00    2.8    88.5    1002         25          
2002-12-25 06    3.7    87.9    1002         25          
2002-12-25 12    4.7    87.4    1002         25          
2002-12-25 18    5.7    87.7    1002         25          
2002-12-26 00    6.6    88.0    1002         25          
2002-12-26 06    7.4    88.4    1002         25          
2002-12-26 12    8.1    88.8    1002         25          
2002-12-26 18    8.7    89.1    1000         30          
2002-12-27 00    9.1    89.4    1000         30          
2002-12-27 06    9.2    89.8    1000         30          
2002-12-27 12    9.3    90.3    1000         30          
2002-12-27 18    9.2    91.0    1000         30          
2002-12-28 00    9.2    91.8    1000         30          
2002-12-28 06    9.3    92.7    1000         30          
2002-12-28 12    9.6    93.5    1000         30          
2002-12-28 18    9.8    93.7    1000         30          
2002-12-29 00    9.9    94.0    1002         25          
2002-12-29 06    9.8    94.2    1002         25          
2002-12-29 12    9.5    94.1    1004         20          
2002-12-29 18    9.6    93.8    1004         20          
2002-12-30 00    9.8    93.2    1004         20          
2002-12-30 06    9.9    92.8    1004         20          
2002-12-30 12   10.0    92.4    1004         20          
2002-12-30 18   10.0    92.0    1004         20          
2002-12-31 00    9.9    91.7    1004         20          
2002-12-31 06    9.8    91.5    1004         20          
2002-12-31 12    9.9    91.3    1002         25          
2002-12-31 18   10.0    91.2    1002         25          
2003-01-01 00   10.0    91.5    1002         25          
2003-01-01 06    9.8    91.4    1002         25          
2003-01-01 12    9.8    91.2    1002         25          
2003-01-01 18    9.9    91.1    1002         25          
2003-01-02 00    9.9    91.4    1002         25          
2003-01-02 06    9.7    91.2    1002         25          
2003-01-02 12    9.7    91.0    1002         25          
2003-01-02 18    9.7    90.8    1002         25          
2003-01-03 00    9.8    90.6    1004         20          
2003-01-03 06   10.1    90.7    1004         20          
Winds are 1-min average.

Tropical cyclone tracks developed by Michael Bath using data from the Joint Typhoon Warning Centre Best Tracks and Google Maps.


[Australian Severe Weather index] [Copyright Notice] [Email Contacts] [Search This Site] [Privacy Policy]
Document: tropical_cyclone_200307.htm Updated: 28 June 2017